sensor_id;sensor_type;location;lat;lon;timestamp;pressure;altitude;pressure_sealevel;temperature;humidity
72428;BME280;60419;48.880;18.036;2023-06-26T00:00:04;99060.38;;;18.63;59.50
72428;BME280;60419;48.880;18.036;2023-06-26T00:02:50;99073.34;;;18.66;60.08
72428;BME280;60419;48.880;18.036;2023-06-26T00:05:35;99071.63;;;17.91;62.49
72428;BME280;60419;48.880;18.036;2023-06-26T00:08:21;99068.47;;;18.40;60.97
72428;BME280;60419;48.880;18.036;2023-06-26T00:11:06;99071.75;;;18.30;60.98
72428;BME280;60419;48.880;18.036;2023-06-26T00:13:52;99067.13;;;18.34;60.92
72428;BME280;60419;48.880;18.036;2023-06-26T00:16:38;99072.63;;;18.70;60.09
72428;BME280;60419;48.880;18.036;2023-06-26T00:19:23;99077.84;;;18.59;60.44
72428;BME280;60419;48.880;18.036;2023-06-26T00:22:08;99076.03;;;18.82;59.58
72428;BME280;60419;48.880;18.036;2023-06-26T00:24:54;99079.31;;;19.11;59.29
72428;BME280;60419;48.880;18.036;2023-06-26T00:27:39;99073.81;;;19.30;57.98
72428;BME280;60419;48.880;18.036;2023-06-26T00:30:25;99076.34;;;19.39;57.89
72428;BME280;60419;48.880;18.036;2023-06-26T00:33:10;99081.03;;;19.19;58.33
72428;BME280;60419;48.880;18.036;2023-06-26T00:35:55;99081.13;;;19.03;58.99
72428;BME280;60419;48.880;18.036;2023-06-26T00:38:41;99074.38;;;18.97;59.17
72428;BME280;60419;48.880;18.036;2023-06-26T00:41:26;99074.81;;;18.64;60.37
72428;BME280;60419;48.880;18.036;2023-06-26T00:44:11;99069.63;;;18.59;60.74
72428;BME280;60419;48.880;18.036;2023-06-26T00:46:57;99074.66;;;18.92;59.14
72428;BME280;60419;48.880;18.036;2023-06-26T00:49:42;99070.69;;;18.89;59.46
72428;BME280;60419;48.880;18.036;2023-06-26T00:52:28;99068.97;;;18.81;60.10
72428;BME280;60419;48.880;18.036;2023-06-26T00:55:13;99062.06;;;18.52;60.48
72428;BME280;60419;48.880;18.036;2023-06-26T00:57:59;99070.25;;;18.68;60.34
72428;BME280;60419;48.880;18.036;2023-06-26T01:00:44;99061.59;;;18.31;61.34
72428;BME280;60419;48.880;18.036;2023-06-26T01:03:30;99068.41;;;18.56;60.26
72428;BME280;60419;48.880;18.036;2023-06-26T01:06:16;99054.56;;;18.30;61.33
72428;BME280;60419;48.880;18.036;2023-06-26T01:09:02;99065.75;;;18.60;60.36
72428;BME280;60419;48.880;18.036;2023-06-26T01:11:48;99054.50;;;18.45;60.78
72428;BME280;60419;48.880;18.036;2023-06-26T01:14:34;99055.31;;;17.95;62.32
72428;BME280;60419;48.880;18.036;2023-06-26T01:17:21;99058.59;;;18.00;62.19
72428;BME280;60419;48.880;18.036;2023-06-26T01:20:08;99062.31;;;17.48;63.91
72428;BME280;60419;48.880;18.036;2023-06-26T01:23:12;99062.16;;;17.41;64.43
72428;BME280;60419;48.880;18.036;2023-06-26T01:29:06;99060.66;;;17.00;65.82
72428;BME280;60419;48.880;18.036;2023-06-26T01:31:52;99055.78;;;17.21;64.67
72428;BME280;60419;48.880;18.036;2023-06-26T01:34:38;99055.69;;;16.89;65.85
72428;BME280;60419;48.880;18.036;2023-06-26T01:37:23;99042.50;;;17.20;64.99
72428;BME280;60419;48.880;18.036;2023-06-26T01:40:09;99053.19;;;17.41;64.22
72428;BME280;60419;48.880;18.036;2023-06-26T01:42:55;99043.09;;;17.29;64.40
72428;BME280;60419;48.880;18.036;2023-06-26T01:45:43;99056.75;;;17.29;64.57
72428;BME280;60419;48.880;18.036;2023-06-26T01:48:37;99054.94;;;17.65;63.72
72428;BME280;60419;48.880;18.036;2023-06-26T01:51:30;99049.41;;;18.09;61.87
72428;BME280;60419;48.880;18.036;2023-06-26T01:54:18;99049.81;;;17.63;62.70
72428;BME280;60419;48.880;18.036;2023-06-26T01:57:06;99050.91;;;17.74;62.10
72428;BME280;60419;48.880;18.036;2023-06-26T01:59:54;99048.38;;;17.22;64.22
72428;BME280;60419;48.880;18.036;2023-06-26T02:02:41;99056.84;;;17.48;63.64
72428;BME280;60419;48.880;18.036;2023-06-26T02:05:27;99048.47;;;17.85;62.42
72428;BME280;60419;48.880;18.036;2023-06-26T02:08:14;99046.22;;;18.07;61.47
72428;BME280;60419;48.880;18.036;2023-06-26T02:11:00;99049.00;;;17.75;62.93
72428;BME280;60419;48.880;18.036;2023-06-26T02:13:45;99050.56;;;17.92;62.14
72428;BME280;60419;48.880;18.036;2023-06-26T02:16:31;99039.16;;;17.74;62.44
72428;BME280;60419;48.880;18.036;2023-06-26T02:19:16;99049.94;;;17.07;64.87
72428;BME280;60419;48.880;18.036;2023-06-26T02:22:06;99054.13;;;16.88;65.85
72428;BME280;60419;48.880;18.036;2023-06-26T02:24:51;99044.72;;;17.46;63.54
72428;BME280;60419;48.880;18.036;2023-06-26T02:27:37;99044.53;;;17.70;62.39
72428;BME280;60419;48.880;18.036;2023-06-26T02:30:22;99051.88;;;17.82;62.50
72428;BME280;60419;48.880;18.036;2023-06-26T02:33:08;99050.97;;;17.30;63.85
72428;BME280;60419;48.880;18.036;2023-06-26T02:35:53;99055.50;;;17.86;62.44
72428;BME280;60419;48.880;18.036;2023-06-26T02:38:38;99031.59;;;17.99;61.36
72428;BME280;60419;48.880;18.036;2023-06-26T02:41:24;99050.53;;;18.08;61.27
72428;BME280;60419;48.880;18.036;2023-06-26T02:44:09;99056.13;;;17.95;61.46
72428;BME280;60419;48.880;18.036;2023-06-26T02:46:56;99056.19;;;17.67;62.73
72428;BME280;60419;48.880;18.036;2023-06-26T02:49:42;99059.69;;;17.52;63.23
72428;BME280;60419;48.880;18.036;2023-06-26T02:52:27;99054.31;;;17.55;62.91
72428;BME280;60419;48.880;18.036;2023-06-26T02:55:14;99060.28;;;17.29;64.15
72428;BME280;60419;48.880;18.036;2023-06-26T02:57:59;99067.63;;;17.57;63.18
72428;BME280;60419;48.880;18.036;2023-06-26T03:00:45;99065.25;;;17.71;62.29
72428;BME280;60419;48.880;18.036;2023-06-26T03:03:30;99059.38;;;17.69;62.50
72428;BME280;60419;48.880;18.036;2023-06-26T03:06:16;99059.66;;;17.80;62.34
72428;BME280;60419;48.880;18.036;2023-06-26T03:09:01;99061.00;;;17.42;63.51
72428;BME280;60419;48.880;18.036;2023-06-26T03:11:47;99057.34;;;17.22;64.39
72428;BME280;60419;48.880;18.036;2023-06-26T03:14:33;99061.38;;;17.56;63.44
72428;BME280;60419;48.880;18.036;2023-06-26T03:17:18;99062.69;;;18.10;64.92
72428;BME280;60419;48.880;18.036;2023-06-26T03:20:04;99054.78;;;18.95;61.01
72428;BME280;60419;48.880;18.036;2023-06-26T03:22:52;99069.22;;;19.15;60.23
72428;BME280;60419;48.880;18.036;2023-06-26T03:25:37;99068.03;;;19.36;57.72
72428;BME280;60419;48.880;18.036;2023-06-26T03:28:22;99066.66;;;19.03;60.40
72428;BME280;60419;48.880;18.036;2023-06-26T03:31:08;99070.63;;;19.48;58.60
72428;BME280;60419;48.880;18.036;2023-06-26T03:33:53;99058.09;;;19.93;55.50
72428;BME280;60419;48.880;18.036;2023-06-26T03:36:39;99065.53;;;19.69;55.43
72428;BME280;60419;48.880;18.036;2023-06-26T03:39:24;99066.03;;;19.32;56.32
72428;BME280;60419;48.880;18.036;2023-06-26T03:42:09;99062.97;;;18.76;57.68
72428;BME280;60419;48.880;18.036;2023-06-26T03:44:55;99064.44;;;18.54;58.70
72428;BME280;60419;48.880;18.036;2023-06-26T03:47:40;99065.41;;;18.61;58.56
72428;BME280;60419;48.880;18.036;2023-06-26T03:50:26;99068.97;;;18.81;58.50
72428;BME280;60419;48.880;18.036;2023-06-26T03:53:11;99069.81;;;18.31;59.77
72428;BME280;60419;48.880;18.036;2023-06-26T03:55:56;99083.34;;;17.92;61.21
72428;BME280;60419;48.880;18.036;2023-06-26T03:58:42;99077.50;;;18.09;61.22
72428;BME280;60419;48.880;18.036;2023-06-26T04:01:27;99072.94;;;18.49;59.61
72428;BME280;60419;48.880;18.036;2023-06-26T04:04:12;99085.38;;;17.79;62.03
72428;BME280;60419;48.880;18.036;2023-06-26T04:06:58;99092.69;;;18.42;60.17
72428;BME280;60419;48.880;18.036;2023-06-26T04:09:44;99079.94;;;18.30;60.53
72428;BME280;60419;48.880;18.036;2023-06-26T04:12:29;99085.16;;;18.55;59.68
72428;BME280;60419;48.880;18.036;2023-06-26T04:15:15;99078.69;;;18.79;58.89
72428;BME280;60419;48.880;18.036;2023-06-26T04:18:00;99092.13;;;17.09;63.75
72428;BME280;60419;48.880;18.036;2023-06-26T04:21:08;99088.81;;;16.63;66.15
72428;BME280;60419;48.880;18.036;2023-06-26T04:23:54;99079.59;;;16.68;65.15
72428;BME280;60419;48.880;18.036;2023-06-26T04:26:40;99091.00;;;16.58;66.50
72428;BME280;60419;48.880;18.036;2023-06-26T04:29:28;99084.47;;;17.15;65.07
72428;BME280;60419;48.880;18.036;2023-06-26T04:32:13;99076.16;;;17.71;62.83
72428;BME280;60419;48.880;18.036;2023-06-26T04:34:58;99080.94;;;18.22;61.66
72428;BME280;60419;48.880;18.036;2023-06-26T04:37:44;99073.22;;;18.43;60.35
72428;BME280;60419;48.880;18.036;2023-06-26T04:40:30;99087.94;;;18.39;59.94
72428;BME280;60419;48.880;18.036;2023-06-26T04:43:15;99083.69;;;16.62;65.67
72428;BME280;60419;48.880;18.036;2023-06-26T04:46:05;99092.34;;;17.48;64.11
72428;BME280;60419;48.880;18.036;2023-06-26T04:48:50;99039.00;;;17.67;61.92
72428;BME280;60419;48.880;18.036;2023-06-26T04:51:36;99100.06;;;17.14;63.87
72428;BME280;60419;48.880;18.036;2023-06-26T04:54:26;99094.81;;;17.53;63.90
72428;BME280;60419;48.880;18.036;2023-06-26T04:57:12;99089.59;;;18.24;61.40
72428;BME280;60419;48.880;18.036;2023-06-26T04:59:58;99037.31;;;17.62;61.39
72428;BME280;60419;48.880;18.036;2023-06-26T05:02:43;99088.22;;;17.10;64.72
72428;BME280;60419;48.880;18.036;2023-06-26T05:05:29;99087.00;;;17.68;62.75
72428;BME280;60419;48.880;18.036;2023-06-26T05:08:16;99090.81;;;16.91;65.80
72428;BME280;60419;48.880;18.036;2023-06-26T05:11:02;99089.50;;;17.29;64.45
72428;BME280;60419;48.880;18.036;2023-06-26T05:13:47;99084.34;;;17.55;62.89
72428;BME280;60419;48.880;18.036;2023-06-26T05:16:33;99079.81;;;17.75;62.41
72428;BME280;60419;48.880;18.036;2023-06-26T05:19:19;99080.44;;;17.85;62.46
72428;BME280;60419;48.880;18.036;2023-06-26T05:22:05;99083.75;;;17.46;63.37
72428;BME280;60419;48.880;18.036;2023-06-26T05:24:54;99076.13;;;16.96;65.22
72428;BME280;60419;48.880;18.036;2023-06-26T05:27:40;99069.47;;;17.09;65.06
72428;BME280;60419;48.880;18.036;2023-06-26T05:30:26;99074.00;;;16.77;66.68
72428;BME280;60419;48.880;18.036;2023-06-26T05:33:14;99071.19;;;16.73;66.25
72428;BME280;60419;48.880;18.036;2023-06-26T05:36:03;99074.31;;;17.59;64.12
72428;BME280;60419;48.880;18.036;2023-06-26T05:38:49;99075.94;;;18.43;61.65
72428;BME280;60419;48.880;18.036;2023-06-26T05:41:35;99077.25;;;18.50;61.12
72428;BME280;60419;48.880;18.036;2023-06-26T05:44:21;99076.44;;;19.23;58.78
72428;BME280;60419;48.880;18.036;2023-06-26T05:47:06;99077.88;;;19.17;59.42
72428;BME280;60419;48.880;18.036;2023-06-26T05:49:52;99075.22;;;18.82;59.16
72428;BME280;60419;48.880;18.036;2023-06-26T05:52:37;99078.09;;;18.89;59.28
72428;BME280;60419;48.880;18.036;2023-06-26T05:55:24;99089.97;;;19.55;57.26
72428;BME280;60419;48.880;18.036;2023-06-26T05:58:10;99074.56;;;19.50;57.33
72428;BME280;60419;48.880;18.036;2023-06-26T06:00:55;99086.03;;;20.02;55.94
72428;BME280;60419;48.880;18.036;2023-06-26T06:03:41;99074.19;;;19.71;56.10
72428;BME280;60419;48.880;18.036;2023-06-26T06:06:26;99087.44;;;19.27;57.65
72428;BME280;60419;48.880;18.036;2023-06-26T06:09:12;99073.94;;;19.57;56.54
72428;BME280;60419;48.880;18.036;2023-06-26T06:11:58;99081.91;;;19.23;57.44
72428;BME280;60419;48.880;18.036;2023-06-26T06:14:44;99087.47;;;19.07;58.29
72428;BME280;60419;48.880;18.036;2023-06-26T06:17:29;99083.56;;;18.89;58.78
72428;BME280;60419;48.880;18.036;2023-06-26T06:20:14;99075.75;;;19.30;57.76
72428;BME280;60419;48.880;18.036;2023-06-26T06:23:00;99075.72;;;19.07;58.97
72428;BME280;60419;48.880;18.036;2023-06-26T06:25:45;99074.22;;;18.90;59.74
72428;BME280;60419;48.880;18.036;2023-06-26T06:28:30;99071.22;;;19.38;57.58
72428;BME280;60419;48.880;18.036;2023-06-26T06:31:16;99070.59;;;18.86;58.97
72428;BME280;60419;48.880;18.036;2023-06-26T06:34:01;99075.22;;;19.86;56.81
72428;BME280;60419;48.880;18.036;2023-06-26T06:36:47;99074.78;;;19.61;56.13
72428;BME280;60419;48.880;18.036;2023-06-26T06:39:32;99063.97;;;20.45;54.23
72428;BME280;60419;48.880;18.036;2023-06-26T06:42:18;99065.59;;;19.73;55.41
72428;BME280;60419;48.880;18.036;2023-06-26T06:45:04;99068.38;;;19.53;56.05
72428;BME280;60419;48.880;18.036;2023-06-26T06:47:49;99050.25;;;20.18;54.09
72428;BME280;60419;48.880;18.036;2023-06-26T06:50:35;99055.03;;;20.25;54.44
72428;BME280;60419;48.880;18.036;2023-06-26T06:53:21;99059.53;;;20.10;54.84
72428;BME280;60419;48.880;18.036;2023-06-26T06:56:06;99054.97;;;19.94;55.30
72428;BME280;60419;48.880;18.036;2023-06-26T06:58:52;99053.88;;;20.82;52.57
72428;BME280;60419;48.880;18.036;2023-06-26T07:01:39;99059.63;;;21.41;50.89
72428;BME280;60419;48.880;18.036;2023-06-26T07:04:24;99053.09;;;21.98;49.60
72428;BME280;60419;48.880;18.036;2023-06-26T07:07:09;99049.81;;;21.85;50.38
72428;BME280;60419;48.880;18.036;2023-06-26T07:09:55;99050.25;;;21.90;49.77
72428;BME280;60419;48.880;18.036;2023-06-26T07:12:40;99043.22;;;21.48;51.05
72428;BME280;60419;48.880;18.036;2023-06-26T07:15:26;99043.34;;;22.11;49.75
72428;BME280;60419;48.880;18.036;2023-06-26T07:18:11;99042.53;;;22.07;50.71
72428;BME280;60419;48.880;18.036;2023-06-26T07:20:57;99051.94;;;20.87;52.51
72428;BME280;60419;48.880;18.036;2023-06-26T07:23:43;99046.75;;;21.49;51.16
72428;BME280;60419;48.880;18.036;2023-06-26T07:26:28;99051.53;;;20.84;52.41
72428;BME280;60419;48.880;18.036;2023-06-26T07:29:13;99054.16;;;21.07;52.59
72428;BME280;60419;48.880;18.036;2023-06-26T07:31:59;99047.53;;;21.12;51.89
72428;BME280;60419;48.880;18.036;2023-06-26T07:34:44;99045.44;;;22.32;49.82
72428;BME280;60419;48.880;18.036;2023-06-26T07:37:30;99048.38;;;22.68;49.05
72428;BME280;60419;48.880;18.036;2023-06-26T07:40:15;99054.88;;;23.15;48.09
72428;BME280;60419;48.880;18.036;2023-06-26T07:43:02;99047.88;;;23.57;46.90
72428;BME280;60419;48.880;18.036;2023-06-26T07:45:48;99041.19;;;23.83;45.65
72428;BME280;60419;48.880;18.036;2023-06-26T07:48:33;99049.06;;;23.81;45.03
72428;BME280;60419;48.880;18.036;2023-06-26T07:51:19;99035.56;;;23.04;45.19
72428;BME280;60419;48.880;18.036;2023-06-26T07:54:04;99035.31;;;22.47;44.51
72428;BME280;60419;48.880;18.036;2023-06-26T07:56:59;99046.59;;;23.15;44.29
72428;BME280;60419;48.880;18.036;2023-06-26T07:59:45;99037.66;;;22.45;42.88
72428;BME280;60419;48.880;18.036;2023-06-26T08:02:30;99035.44;;;22.72;41.92
72428;BME280;60419;48.880;18.036;2023-06-26T08:05:16;99042.69;;;23.34;42.56
72428;BME280;60419;48.880;18.036;2023-06-26T08:08:01;99041.06;;;23.04;43.35
72428;BME280;60419;48.880;18.036;2023-06-26T08:10:48;99035.41;;;22.68;41.46
72428;BME280;60419;48.880;18.036;2023-06-26T08:13:33;99042.91;;;22.75;42.86
72428;BME280;60419;48.880;18.036;2023-06-26T08:16:19;99032.53;;;22.40;44.11
72428;BME280;60419;48.880;18.036;2023-06-26T08:19:04;99027.22;;;22.75;42.67
72428;BME280;60419;48.880;18.036;2023-06-26T08:21:49;99037.19;;;23.23;42.47
72428;BME280;60419;48.880;18.036;2023-06-26T08:24:35;99034.81;;;23.25;41.15
72428;BME280;60419;48.880;18.036;2023-06-26T08:27:22;99025.34;;;23.05;40.41
72428;BME280;60419;48.880;18.036;2023-06-26T08:30:07;99034.09;;;23.89;41.77
72428;BME280;60419;48.880;18.036;2023-06-26T08:32:55;99017.09;;;23.19;39.50
72428;BME280;60419;48.880;18.036;2023-06-26T08:35:40;99029.38;;;23.47;39.51
72428;BME280;60419;48.880;18.036;2023-06-26T08:38:26;99025.44;;;23.76;38.87
72428;BME280;60419;48.880;18.036;2023-06-26T08:41:11;99019.91;;;23.83;39.33
72428;BME280;60419;48.880;18.036;2023-06-26T08:43:56;99021.09;;;23.47;39.37
72428;BME280;60419;48.880;18.036;2023-06-26T08:46:43;99014.22;;;22.79;38.72
72428;BME280;60419;48.880;18.036;2023-06-26T08:52:30;99026.13;;;23.01;39.35
72428;BME280;60419;48.880;18.036;2023-06-26T08:55:19;99027.34;;;23.40;38.43
72428;BME280;60419;48.880;18.036;2023-06-26T08:58:07;99019.03;;;23.08;39.31
72428;BME280;60419;48.880;18.036;2023-06-26T09:00:52;99021.84;;;23.97;39.20
72428;BME280;60419;48.880;18.036;2023-06-26T09:03:39;99011.88;;;24.61;38.02
72428;BME280;60419;48.880;18.036;2023-06-26T09:06:26;99005.16;;;24.62;37.75
72428;BME280;60419;48.880;18.036;2023-06-26T09:09:12;99002.56;;;23.94;39.55
72428;BME280;60419;48.880;18.036;2023-06-26T09:11:57;99002.31;;;24.80;38.78
72428;BME280;60419;48.880;18.036;2023-06-26T09:14:43;99012.25;;;24.66;38.89
72428;BME280;60419;48.880;18.036;2023-06-26T09:17:30;99003.25;;;24.44;38.48
72428;BME280;60419;48.880;18.036;2023-06-26T09:20:16;99003.97;;;25.36;38.01
72428;BME280;60419;48.880;18.036;2023-06-26T09:23:01;99004.22;;;25.60;36.38
72428;BME280;60419;48.880;18.036;2023-06-26T09:25:47;99003.34;;;24.19;38.79
72428;BME280;60419;48.880;18.036;2023-06-26T09:28:34;99001.94;;;24.70;38.98
72428;BME280;60419;48.880;18.036;2023-06-26T09:31:20;98994.38;;;24.92;38.05
72428;BME280;60419;48.880;18.036;2023-06-26T09:34:06;98990.06;;;25.47;37.56
72428;BME280;60419;48.880;18.036;2023-06-26T09:36:53;98988.03;;;26.00;37.59
72428;BME280;60419;48.880;18.036;2023-06-26T09:39:38;98974.09;;;25.73;36.21
72428;BME280;60419;48.880;18.036;2023-06-26T09:42:24;98942.78;;;25.34;35.94
72428;BME280;60419;48.880;18.036;2023-06-26T09:45:18;98981.88;;;24.66;38.30
72428;BME280;60419;48.880;18.036;2023-06-26T09:48:05;98978.22;;;25.47;38.06
72428;BME280;60419;48.880;18.036;2023-06-26T09:50:53;98981.00;;;24.87;37.72
72428;BME280;60419;48.880;18.036;2023-06-26T09:53:41;98963.34;;;24.63;38.12
72428;BME280;60419;48.880;18.036;2023-06-26T09:56:28;98967.47;;;25.04;37.90
72428;BME280;60419;48.880;18.036;2023-06-26T09:59:15;98966.69;;;25.03;36.92
72428;BME280;60419;48.880;18.036;2023-06-26T10:02:00;98967.34;;;25.22;36.13
72428;BME280;60419;48.880;18.036;2023-06-26T10:04:46;98970.28;;;24.96;36.36
72428;BME280;60419;48.880;18.036;2023-06-26T10:07:31;98965.84;;;25.13;36.15
72428;BME280;60419;48.880;18.036;2023-06-26T10:10:19;98973.00;;;25.07;36.03
72428;BME280;60419;48.880;18.036;2023-06-26T10:13:12;98883.88;;;24.15;36.36
72428;BME280;60419;48.880;18.036;2023-06-26T10:16:00;98973.22;;;25.27;36.90
72428;BME280;60419;48.880;18.036;2023-06-26T10:18:46;98963.50;;;25.60;35.77
72428;BME280;60419;48.880;18.036;2023-06-26T10:21:34;98959.66;;;26.30;35.65
72428;BME280;60419;48.880;18.036;2023-06-26T10:24:23;98954.16;;;25.89;35.07
72428;BME280;60419;48.880;18.036;2023-06-26T10:27:16;98939.94;;;25.87;34.51
72428;BME280;60419;48.880;18.036;2023-06-26T10:30:05;98950.94;;;26.32;34.16
72428;BME280;60419;48.880;18.036;2023-06-26T10:32:52;98927.75;;;25.39;35.00
72428;BME280;60419;48.880;18.036;2023-06-26T10:35:44;98939.88;;;25.49;35.17
72428;BME280;60419;48.880;18.036;2023-06-26T10:38:54;98936.31;;;25.55;34.53
72428;BME280;60419;48.880;18.036;2023-06-26T10:41:40;98939.75;;;26.04;34.37
72428;BME280;60419;48.880;18.036;2023-06-26T10:44:40;98927.34;;;25.82;32.59
72428;BME280;60419;48.880;18.036;2023-06-26T10:47:32;98933.34;;;25.28;33.56
72428;BME280;60419;48.880;18.036;2023-06-26T10:50:24;98925.16;;;25.14;33.52
72428;BME280;60419;48.880;18.036;2023-06-26T10:56:11;98926.44;;;25.54;34.08
72428;BME280;60419;48.880;18.036;2023-06-26T10:59:11;98918.84;;;26.65;32.57
72428;BME280;60419;48.880;18.036;2023-06-26T11:02:04;98923.31;;;26.28;33.08
72428;BME280;60419;48.880;18.036;2023-06-26T11:04:59;98924.09;;;25.91;34.20
72428;BME280;60419;48.880;18.036;2023-06-26T11:08:03;98922.47;;;26.62;32.16
72428;BME280;60419;48.880;18.036;2023-06-26T11:10:59;98923.41;;;25.79;33.54
72428;BME280;60419;48.880;18.036;2023-06-26T11:13:46;98920.47;;;25.59;33.52
72428;BME280;60419;48.880;18.036;2023-06-26T11:16:32;98916.63;;;25.46;33.22
72428;BME280;60419;48.880;18.036;2023-06-26T11:19:19;98913.88;;;26.53;32.65
72428;BME280;60419;48.880;18.036;2023-06-26T11:22:07;98912.38;;;27.29;32.94
72428;BME280;60419;48.880;18.036;2023-06-26T11:24:53;98914.78;;;26.46;32.43
72428;BME280;60419;48.880;18.036;2023-06-26T11:27:40;98925.16;;;26.96;31.91
72428;BME280;60419;48.880;18.036;2023-06-26T11:30:26;98901.84;;;26.36;32.54
72428;BME280;60419;48.880;18.036;2023-06-26T11:33:12;98903.53;;;25.92;33.38
72428;BME280;60419;48.880;18.036;2023-06-26T11:36:08;98902.69;;;26.33;32.64
72428;BME280;60419;48.880;18.036;2023-06-26T11:39:01;98889.75;;;26.80;31.57
72428;BME280;60419;48.880;18.036;2023-06-26T11:41:48;98905.41;;;26.94;32.93
72428;BME280;60419;48.880;18.036;2023-06-26T11:44:40;98909.66;;;27.49;30.23
72428;BME280;60419;48.880;18.036;2023-06-26T11:47:26;98905.19;;;26.81;31.47
72428;BME280;60419;48.880;18.036;2023-06-26T11:50:16;98896.09;;;26.81;32.01
72428;BME280;60419;48.880;18.036;2023-06-26T11:53:02;98896.56;;;26.14;32.61
72428;BME280;60419;48.880;18.036;2023-06-26T11:55:50;98886.00;;;25.68;33.13
72428;BME280;60419;48.880;18.036;2023-06-26T11:58:37;98906.19;;;26.02;32.55
72428;BME280;60419;48.880;18.036;2023-06-26T12:01:42;98889.94;;;26.04;31.74
72428;BME280;60419;48.880;18.036;2023-06-26T12:04:30;98899.84;;;26.36;32.21
72428;BME280;60419;48.880;18.036;2023-06-26T12:07:16;98899.84;;;26.94;31.25
72428;BME280;60419;48.880;18.036;2023-06-26T12:10:04;98900.69;;;26.91;31.10
72428;BME280;60419;48.880;18.036;2023-06-26T12:12:51;98900.94;;;26.46;31.60
72428;BME280;60419;48.880;18.036;2023-06-26T12:15:36;98902.78;;;26.83;31.64
72428;BME280;60419;48.880;18.036;2023-06-26T12:18:22;98899.41;;;27.23;31.39
72428;BME280;60419;48.880;18.036;2023-06-26T12:24:21;98883.59;;;27.20;30.58
72428;BME280;60419;48.880;18.036;2023-06-26T12:27:12;98886.44;;;26.92;30.93
72428;BME280;60419;48.880;18.036;2023-06-26T12:29:57;98886.94;;;26.26;32.30
72428;BME280;60419;48.880;18.036;2023-06-26T12:32:47;98889.75;;;26.22;31.48
72428;BME280;60419;48.880;18.036;2023-06-26T12:35:33;98884.34;;;26.42;31.03
72428;BME280;60419;48.880;18.036;2023-06-26T12:38:19;98895.28;;;25.43;31.47
72428;BME280;60419;48.880;18.036;2023-06-26T12:41:12;98885.66;;;26.00;31.45
72428;BME280;60419;48.880;18.036;2023-06-26T12:43:57;98891.31;;;27.08;30.03
72428;BME280;60419;48.880;18.036;2023-06-26T12:46:43;98896.91;;;27.28;31.12
72428;BME280;60419;48.880;18.036;2023-06-26T12:49:38;98885.50;;;27.26;31.04
72428;BME280;60419;48.880;18.036;2023-06-26T12:52:24;98882.19;;;27.78;30.60
72428;BME280;60419;48.880;18.036;2023-06-26T12:55:09;98872.69;;;27.32;29.81
72428;BME280;60419;48.880;18.036;2023-06-26T12:57:55;98888.84;;;27.38;31.09
72428;BME280;60419;48.880;18.036;2023-06-26T13:00:40;98877.13;;;27.73;30.34
72428;BME280;60419;48.880;18.036;2023-06-26T13:03:26;98883.03;;;26.81;30.41
72428;BME280;60419;48.880;18.036;2023-06-26T13:06:11;98870.59;;;26.93;30.58
72428;BME280;60419;48.880;18.036;2023-06-26T13:08:58;98873.31;;;27.44;30.10
72428;BME280;60419;48.880;18.036;2023-06-26T13:11:44;98867.44;;;27.38;30.10
72428;BME280;60419;48.880;18.036;2023-06-26T13:14:30;98871.16;;;27.31;30.35
72428;BME280;60419;48.880;18.036;2023-06-26T13:17:16;98863.69;;;27.92;30.09
72428;BME280;60419;48.880;18.036;2023-06-26T13:20:01;98864.47;;;27.92;30.58
72428;BME280;60419;48.880;18.036;2023-06-26T13:22:47;98848.19;;;27.94;30.06
72428;BME280;60419;48.880;18.036;2023-06-26T13:25:33;98847.44;;;27.50;30.68
72428;BME280;60419;48.880;18.036;2023-06-26T13:28:18;98862.47;;;27.73;29.62
72428;BME280;60419;48.880;18.036;2023-06-26T13:31:04;98852.31;;;26.68;29.86
72428;BME280;60419;48.880;18.036;2023-06-26T13:33:49;98845.91;;;27.89;29.37
72428;BME280;60419;48.880;18.036;2023-06-26T13:36:35;98854.88;;;28.53;29.12
72428;BME280;60419;48.880;18.036;2023-06-26T13:39:21;98842.56;;;28.18;29.14
72428;BME280;60419;48.880;18.036;2023-06-26T13:42:06;98862.06;;;27.94;29.49
72428;BME280;60419;48.880;18.036;2023-06-26T13:44:52;98777.03;;;27.64;28.92
72428;BME280;60419;48.880;18.036;2023-06-26T13:47:37;98852.94;;;28.34;28.72
72428;BME280;60419;48.880;18.036;2023-06-26T13:50:26;98849.47;;;28.10;28.80
72428;BME280;60419;48.880;18.036;2023-06-26T13:53:11;98848.78;;;28.42;28.31
72428;BME280;60419;48.880;18.036;2023-06-26T13:55:57;98835.91;;;29.01;29.07
72428;BME280;60419;48.880;18.036;2023-06-26T13:58:43;98835.47;;;29.64;27.79
72428;BME280;60419;48.880;18.036;2023-06-26T14:01:29;98831.09;;;28.52;28.84
72428;BME280;60419;48.880;18.036;2023-06-26T14:04:14;98835.13;;;28.31;28.94
72428;BME280;60419;48.880;18.036;2023-06-26T14:07:00;98830.53;;;27.85;29.55
72428;BME280;60419;48.880;18.036;2023-06-26T14:09:45;98830.38;;;27.72;30.15
72428;BME280;60419;48.880;18.036;2023-06-26T14:12:30;98823.69;;;28.45;29.71
72428;BME280;60419;48.880;18.036;2023-06-26T14:15:16;98827.28;;;28.95;28.70
72428;BME280;60419;48.880;18.036;2023-06-26T14:18:01;98819.38;;;28.61;28.57
72428;BME280;60419;48.880;18.036;2023-06-26T14:20:48;98819.31;;;28.81;28.87
72428;BME280;60419;48.880;18.036;2023-06-26T14:23:33;98825.66;;;28.98;28.21
72428;BME280;60419;48.880;18.036;2023-06-26T14:26:18;98823.91;;;28.87;28.19
72428;BME280;60419;48.880;18.036;2023-06-26T14:29:04;98823.03;;;27.18;29.82
72428;BME280;60419;48.880;18.036;2023-06-26T14:31:49;98822.72;;;28.72;27.87
72428;BME280;60419;48.880;18.036;2023-06-26T14:34:35;98815.75;;;29.59;28.00
72428;BME280;60419;48.880;18.036;2023-06-26T14:37:20;98799.03;;;28.64;28.43
72428;BME280;60419;48.880;18.036;2023-06-26T14:40:09;98817.03;;;28.59;29.22
72428;BME280;60419;48.880;18.036;2023-06-26T14:42:54;98815.56;;;28.87;29.41